Time;durP1;ratioP1;P1;durP2;ratioP2;P2;SDS_P1;SDS_P2;PMS_P1;PMS_P2;Temp;Humidity;BMP_temperature;BMP_pressure;BME280_temperature;BME280_humidity;BME280_pressure;Samples;Min_cycle;Max_cycle;Signal;HPM_P1;HPM_P2
2022/05/14 00:01:03;;;;;;;3.45;3.15;;;;;;;;;;6495415;22;20314;-62
2022/05/14 00:03:34;;;;;;;2.92;2.83;;;;;;;;;;6495054;22;20033;-61
2022/05/14 00:06:06;;;;;;;3.03;2.78;;;;;;;;;;6495402;22;20313;-60
2022/05/14 00:08:37;;;;;;;2.83;2.72;;;;;;;;;;6495658;22;20167;-62
2022/05/14 00:13:56;;;;;;;2.95;2.85;;;;;;;;;;6520877;22;20007;-61
2022/05/14 00:16:26;;;;;;;2.70;2.60;;;;;;;;;;6495013;22;20003;-62
2022/05/14 00:18:57;;;;;;;3.97;3.67;;;;;;;;;;6522300;22;20003;-61
2022/05/14 00:21:27;;;;;;;3.53;3.17;;;;;;;;;;6495694;22;19999;-62
2022/05/14 00:23:58;;;;;;;7.68;3.20;;;;;;;;;;6495328;22;19995;-62
2022/05/14 00:26:28;;;;;;;3.45;3.13;;;;;;;;;;6494939;22;20001;-62
2022/05/14 00:28:59;;;;;;;5.68;3.90;;;;;;;;;;6494894;22;20027;-61
2022/05/14 00:31:30;;;;;;;4.75;3.45;;;;;;;;;;6494678;22;20022;-62
2022/05/14 00:34:00;;;;;;;2.58;2.38;;;;;;;;;;6494531;22;20456;-62
2022/05/14 00:36:31;;;;;;;2.95;2.67;;;;;;;;;;6522295;22;20007;-60
2022/05/14 00:39:01;;;;;;;3.55;3.33;;;;;;;;;;6495699;22;20014;-62
2022/05/14 00:41:32;;;;;;;4.82;3.65;;;;;;;;;;6495370;22;20378;-62
2022/05/14 00:44:02;;;;;;;7.10;4.43;;;;;;;;;;6495223;22;20349;-63
2022/05/14 00:46:33;;;;;;;3.90;3.60;;;;;;;;;;6495365;22;20025;-62
2022/05/14 00:49:03;;;;;;;3.78;3.58;;;;;;;;;;6495044;22;19995;-61
2022/05/14 00:51:35;;;;;;;3.85;3.42;;;;;;;;;;6495442;22;19999;-62
2022/05/14 00:54:06;;;;;;;3.97;3.47;;;;;;;;;;6495183;22;20392;-62
2022/05/14 00:56:42;;;;;;;7.20;3.95;;;;;;;;;;6523243;22;20003;-62
2022/05/14 00:59:16;;;;;;;4.25;3.95;;;;;;;;;;6495862;22;19999;-62
2022/05/14 01:01:48;;;;;;;4.53;3.42;;;;;;;;;;6495870;22;20052;-62
2022/05/14 01:04:19;;;;;;;11.18;4.22;;;;;;;;;;6478331;22;20086;-62
2022/05/14 01:07:02;;;;;;;5.53;4.97;;;;;;;;;;6463555;22;20011;-62
2022/05/14 01:09:36;;;;;;;4.32;3.95;;;;;;;;;;6463615;22;19995;-62
2022/05/14 01:12:07;;;;;;;4.28;3.97;;;;;;;;;;6463325;22;19999;-62
2022/05/14 01:14:37;;;;;;;8.02;4.80;;;;;;;;;;6489793;22;19995;-62
2022/05/14 01:17:07;;;;;;;7.05;5.00;;;;;;;;;;6462991;22;20066;-63
2022/05/14 01:19:38;;;;;;;5.22;4.82;;;;;;;;;;6462779;22;20059;-63
2022/05/14 01:22:20;;;;;;;5.35;3.88;;;;;;;;;;6463034;22;19999;-63
2022/05/14 01:28:01;;;;;;;5.75;4.25;;;;;;;;;;6490368;22;20069;-61
2022/05/14 01:30:31;;;;;;;2.80;2.70;;;;;;;;;;6461147;22;20422;-62
2022/05/14 01:33:05;;;;;;;4.60;4.40;;;;;;;;;;6463061;22;20045;-62
2022/05/14 01:35:36;;;;;;;5.97;3.88;;;;;;;;;;6463496;22;20384;-62
2022/05/14 01:38:07;;;;;;;10.88;4.57;;;;;;;;;;6462881;22;20007;-62
2022/05/14 01:40:37;;;;;;;7.65;4.35;;;;;;;;;;6462366;22;19999;-62
2022/05/14 01:43:08;;;;;;;4.13;3.78;;;;;;;;;;6461589;22;20437;-63
2022/05/14 01:45:38;;;;;;;4.35;3.83;;;;;;;;;;6462131;22;20106;-61
2022/05/14 01:48:09;;;;;;;9.73;4.72;;;;;;;;;;6462609;22;20046;-62
2022/05/14 01:50:41;;;;;;;5.88;5.05;;;;;;;;;;6490371;22;20003;-62
2022/05/14 01:53:11;;;;;;;7.57;4.70;;;;;;;;;;6463042;22;20000;-62
2022/05/14 01:55:41;;;;;;;10.35;4.03;;;;;;;;;;6462260;22;20011;-62
2022/05/14 01:58:37;;;;;;;4.80;3.90;;;;;;;;;;6462387;22;20000;-62
2022/05/14 02:01:07;;;;;;;3.60;3.40;;;;;;;;;;6490359;22;20683;-62
2022/05/14 02:03:38;;;;;;;8.73;4.40;;;;;;;;;;6464609;22;20011;-62
2022/05/14 02:06:08;;;;;;;7.25;3.88;;;;;;;;;;6488722;22;20000;-62
2022/05/14 02:08:39;;;;;;;10.48;5.68;;;;;;;;;;6489302;22;20426;-62
2022/05/14 02:11:10;;;;;;;4.78;4.38;;;;;;;;;;6490013;22;20030;-61
2022/05/14 02:13:41;;;;;;;6.55;3.92;;;;;;;;;;6489001;22;20004;-63
2022/05/14 02:16:11;;;;;;;4.97;4.72;;;;;;;;;;6491633;22;19995;-62
2022/05/14 02:18:42;;;;;;;7.40;4.53;;;;;;;;;;6489528;22;20029;-61
2022/05/14 02:21:12;;;;;;;4.78;4.10;;;;;;;;;;6489205;22;19999;-62
2022/05/14 02:23:42;;;;;;;4.38;3.92;;;;;;;;;;6488928;22;20315;-62
2022/05/14 02:26:13;;;;;;;5.25;4.78;;;;;;;;;;6488860;22;20071;-63
2022/05/14 02:28:44;;;;;;;4.82;4.18;;;;;;;;;;6488698;22;20006;-63
2022/05/14 02:31:14;;;;;;;3.50;3.33;;;;;;;;;;6488950;22;20076;-63
2022/05/14 02:33:44;;;;;;;8.65;5.25;;;;;;;;;;6488556;22;20038;-63
2022/05/14 02:36:15;;;;;;;4.82;4.28;;;;;;;;;;6489428;22;20007;-63
2022/05/14 02:38:46;;;;;;;5.18;4.78;;;;;;;;;;6490513;22;20131;-60
2022/05/14 02:41:16;;;;;;;7.28;4.00;;;;;;;;;;6490596;22;20000;-62
2022/05/14 02:43:46;;;;;;;5.07;4.70;;;;;;;;;;6490119;22;19996;-63
2022/05/14 02:46:17;;;;;;;4.35;4.15;;;;;;;;;;6491453;22;19995;-62
2022/05/14 02:48:47;;;;;;;6.75;5.22;;;;;;;;;;6491040;22;20003;-62
2022/05/14 02:51:17;;;;;;;5.18;4.68;;;;;;;;;;6492754;22;20425;-63
2022/05/14 02:53:48;;;;;;;10.57;3.97;;;;;;;;;;6490911;22;19999;-62
2022/05/14 02:56:18;;;;;;;5.60;4.47;;;;;;;;;;6492055;22;19999;-62
2022/05/14 02:59:07;;;;;;;5.22;4.65;;;;;;;;;;6491388;22;20027;-60
2022/05/14 03:01:47;;;;;;;6.97;4.13;;;;;;;;;;6490571;22;19999;-62
2022/05/14 03:04:19;;;;;;;5.00;4.22;;;;;;;;;;6489987;22;20070;-61
2022/05/14 03:06:50;;;;;;;4.75;4.40;;;;;;;;;;6490711;22;20394;-61
2022/05/14 03:09:21;;;;;;;6.20;5.55;;;;;;;;;;6492630;22;20019;-62
2022/05/14 03:11:51;;;;;;;9.48;4.70;;;;;;;;;;6492729;22;20379;-61
2022/05/14 03:14:22;;;;;;;5.57;5.13;;;;;;;;;;6489967;22;20094;-61
2022/05/14 03:16:52;;;;;;;3.90;3.70;;;;;;;;;;6490232;22;19999;-63
2022/05/14 03:19:23;;;;;;;5.53;4.63;;;;;;;;;;6490768;22;20023;-62
2022/05/14 03:21:53;;;;;;;10.80;4.60;;;;;;;;;;6491308;22;20025;-62
2022/05/14 03:24:23;;;;;;;9.45;4.63;;;;;;;;;;6491070;22;20094;-64
2022/05/14 03:26:54;;;;;;;8.68;5.25;;;;;;;;;;6490979;22;20373;-62
2022/05/14 03:29:24;;;;;;;4.45;4.03;;;;;;;;;;6490491;22;19992;-61
2022/05/14 03:31:57;;;;;;;11.43;5.32;;;;;;;;;;6490847;22;19995;-63
2022/05/14 03:34:27;;;;;;;5.18;4.18;;;;;;;;;;6489862;22;19999;-63
2022/05/14 03:36:58;;;;;;;5.70;5.07;;;;;;;;;;6490359;22;20034;-64
2022/05/14 03:39:28;;;;;;;5.55;5.13;;;;;;;;;;6491949;22;19999;-63
2022/05/14 03:41:58;;;;;;;5.97;5.22;;;;;;;;;;6489866;22;20008;-63
2022/05/14 03:44:29;;;;;;;4.20;3.90;;;;;;;;;;6489242;22;20022;-63
2022/05/14 03:46:59;;;;;;;5.00;4.70;;;;;;;;;;6489782;22;20004;-60
2022/05/14 03:49:29;;;;;;;9.82;4.95;;;;;;;;;;6489966;22;19995;-62
2022/05/14 03:52:00;;;;;;;8.63;4.97;;;;;;;;;;6489626;22;20023;-63
2022/05/14 03:54:31;;;;;;;9.40;6.13;;;;;;;;;;6489507;22;20129;-62
2022/05/14 03:57:02;;;;;;;6.45;5.57;;;;;;;;;;6490078;22;19998;-63
2022/05/14 03:59:35;;;;;;;9.80;5.25;;;;;;;;;;6491373;22;20003;-62
2022/05/14 04:02:06;;;;;;;5.88;5.35;;;;;;;;;;6489599;22;20071;-63
2022/05/14 04:04:36;;;;;;;4.63;4.10;;;;;;;;;;6489851;22;20393;-62
2022/05/14 04:07:06;;;;;;;7.75;4.85;;;;;;;;;;6488459;22;20004;-62
2022/05/14 04:09:37;;;;;;;3.17;3.05;;;;;;;;;;6488788;22;20003;-63
2022/05/14 04:12:08;;;;;;;7.03;6.05;;;;;;;;;;6490940;22;20076;-63
2022/05/14 04:14:38;;;;;;;5.45;5.07;;;;;;;;;;6488658;22;20068;-63
2022/05/14 04:17:09;;;;;;;7.25;5.18;;;;;;;;;;6489784;22;20028;-62
2022/05/14 04:19:39;;;;;;;15.55;6.68;;;;;;;;;;6493668;22;20018;-61
2022/05/14 04:22:09;;;;;;;7.28;5.40;;;;;;;;;;6492266;22;20003;-62
2022/05/14 04:24:39;;;;;;;10.00;6.57;;;;;;;;;;6488667;22;20000;-62
2022/05/14 04:27:10;;;;;;;6.80;5.80;;;;;;;;;;6487874;22;20002;-62
2022/05/14 04:29:40;;;;;;;5.13;4.78;;;;;;;;;;6488859;22;19996;-62
2022/05/14 04:32:10;;;;;;;7.60;5.43;;;;;;;;;;6488699;22;20430;-63
2022/05/14 04:34:41;;;;;;;11.60;5.13;;;;;;;;;;6488019;22;20132;-63
2022/05/14 04:37:11;;;;;;;6.15;5.65;;;;;;;;;;6490190;22;20064;-63
2022/05/14 04:39:42;;;;;;;6.28;5.22;;;;;;;;;;6488241;22;20345;-63
2022/05/14 04:42:12;;;;;;;6.15;5.57;;;;;;;;;;6488321;22;20003;-62
2022/05/14 04:44:42;;;;;;;6.50;5.40;;;;;;;;;;6488060;22;19999;-63
2022/05/14 04:47:14;;;;;;;7.55;5.25;;;;;;;;;;6488696;22;19996;-61
2022/05/14 04:49:46;;;;;;;6.30;5.78;;;;;;;;;;6488407;22;20000;-61
2022/05/14 04:52:16;;;;;;;5.57;5.18;;;;;;;;;;6487778;22;20388;-62
2022/05/14 04:54:46;;;;;;;8.60;5.68;;;;;;;;;;6488074;22;20023;-63
2022/05/14 04:57:17;;;;;;;5.32;4.80;;;;;;;;;;6487901;22;20087;-62
2022/05/14 04:59:47;;;;;;;7.00;5.45;;;;;;;;;;6488518;22;20003;-60
2022/05/14 05:05:06;;;;;;;9.32;5.00;;;;;;;;;;6512010;22;20080;-58
2022/05/14 05:07:37;;;;;;;8.27;4.82;;;;;;;;;;6492237;22;19995;-58
2022/05/14 05:10:07;;;;;;;4.70;4.30;;;;;;;;;;6521518;22;20074;-58
2022/05/14 05:12:37;;;;;;;6.88;6.18;;;;;;;;;;6495632;22;20003;-58
2022/05/14 05:15:08;;;;;;;6.20;5.38;;;;;;;;;;6495178;22;19996;-58
2022/05/14 05:17:38;;;;;;;8.57;5.55;;;;;;;;;;6495378;22;20282;-57
2022/05/14 05:20:09;;;;;;;6.05;5.53;;;;;;;;;;6522770;22;19999;-57
2022/05/14 05:22:40;;;;;;;8.80;5.95;;;;;;;;;;6495506;22;20045;-57
2022/05/14 05:25:12;;;;;;;9.75;5.90;;;;;;;;;;6495290;22;20010;-58
2022/05/14 05:27:42;;;;;;;6.45;5.85;;;;;;;;;;6495609;22;20475;-57
2022/05/14 05:30:12;;;;;;;7.10;5.78;;;;;;;;;;6495508;22;20004;-58
2022/05/14 05:32:43;;;;;;;6.10;5.60;;;;;;;;;;6522725;22;20028;-58
2022/05/14 05:35:14;;;;;;;7.60;6.30;;;;;;;;;;6494249;22;19995;-56
2022/05/14 05:37:44;;;;;;;9.02;6.30;;;;;;;;;;6494769;22;20000;-57
2022/05/14 05:40:15;;;;;;;11.73;5.18;;;;;;;;;;6494832;22;20087;-57
2022/05/14 05:42:46;;;;;;;5.90;4.95;;;;;;;;;;6495034;22;19995;-57
2022/05/14 05:45:16;;;;;;;6.45;5.85;;;;;;;;;;6521819;22;20002;-59
2022/05/14 05:47:47;;;;;;;9.55;6.47;;;;;;;;;;6495175;22;20030;-59
2022/05/14 05:50:17;;;;;;;6.60;5.78;;;;;;;;;;6495558;22;20030;-59
2022/05/14 05:52:50;;;;;;;28.73;8.07;;;;;;;;;;6495782;22;20082;-60
2022/05/14 05:58:10;;;;;;;11.40;6.05;;;;;;;;;;6522342;22;20010;-58
2022/05/14 06:00:41;;;;;;;7.82;7.13;;;;;;;;;;6495163;22;20007;-58
2022/05/14 06:03:11;;;;;;;36.90;33.85;;;;;;;;;;6495422;22;20046;-58
2022/05/14 06:05:42;;;;;;;7.93;6.95;;;;;;;;;;6495043;22;20004;-58
2022/05/14 06:08:14;;;;;;;10.23;7.80;;;;;;;;;;6495126;22;19995;-57
2022/05/14 06:10:44;;;;;;;14.70;7.40;;;;;;;;;;6493855;22;20010;-58
2022/05/14 06:13:14;;;;;;;9.80;8.10;;;;;;;;;;6525042;22;20433;-58
2022/05/14 06:15:45;;;;;;;8.13;6.78;;;;;;;;;;6497355;22;20026;-58
2022/05/14 06:18:16;;;;;;;8.07;7.38;;;;;;;;;;6497384;22;20056;-58
2022/05/14 06:20:46;;;;;;;7.85;6.65;;;;;;;;;;6497285;22;20082;-58
2022/05/14 06:23:16;;;;;;;7.85;7.28;;;;;;;;;;6497341;22;20002;-60
2022/05/14 06:25:47;;;;;;;16.85;7.40;;;;;;;;;;6497298;22;20078;-58
2022/05/14 06:28:17;;;;;;;9.20;8.13;;;;;;;;;;6497638;22;20026;-58
2022/05/14 06:30:47;;;;;;;11.40;7.25;;;;;;;;;;6497003;22;20053;-59
2022/05/14 06:33:18;;;;;;;14.10;7.88;;;;;;;;;;6524381;22;19999;-60
2022/05/14 06:35:49;;;;;;;14.77;8.55;;;;;;;;;;6497135;22;20002;-57
2022/05/14 06:38:19;;;;;;;8.48;6.50;;;;;;;;;;6497106;22;20003;-59
2022/05/14 06:40:50;;;;;;;9.70;7.35;;;;;;;;;;6496848;22;19998;-58
2022/05/14 06:43:20;;;;;;;9.68;8.82;;;;;;;;;;6497118;22;20007;-59
2022/05/14 06:45:51;;;;;;;9.50;7.75;;;;;;;;;;6496653;22;20511;-60
2022/05/14 06:48:22;;;;;;;12.23;7.85;;;;;;;;;;6497076;22;20393;-60
2022/05/14 06:50:56;;;;;;;11.73;7.78;;;;;;;;;;6496969;22;20030;-58
2022/05/14 06:53:27;;;;;;;11.88;9.23;;;;;;;;;;6496253;22;20000;-60
2022/05/14 06:55:59;;;;;;;8.65;7.53;;;;;;;;;;6497178;22;20436;-58
2022/05/14 06:58:35;;;;;;;13.07;7.60;;;;;;;;;;6524722;22;19996;-60
2022/05/14 07:01:05;;;;;;;9.13;8.40;;;;;;;;;;6496603;22;20085;-59
2022/05/14 07:06:38;;;;;;;9.95;9.15;;;;;;;;;;6556693;22;20055;-60
2022/05/14 07:09:23;;;;;;;9.13;7.13;;;;;;;;;;6528395;22;20001;-59
2022/05/14 07:11:58;;;;;;;14.15;7.35;;;;;;;;;;6528730;22;20444;-58
2022/05/14 07:14:29;;;;;;;6.10;5.63;;;;;;;;;;6528695;22;20258;-60
2022/05/14 07:17:00;;;;;;;9.57;7.38;;;;;;;;;;6528927;22;20014;-59
2022/05/14 07:19:30;;;;;;;11.15;6.90;;;;;;;;;;6556177;22;20003;-60
2022/05/14 07:22:01;;;;;;;12.90;6.85;;;;;;;;;;6528266;22;20006;-61
2022/05/14 07:24:32;;;;;;;19.08;7.20;;;;;;;;;;6528395;22;19995;-60
2022/05/14 07:27:03;;;;;;;10.20;6.85;;;;;;;;;;6528700;22;20076;-60
2022/05/14 07:29:35;;;;;;;7.28;6.55;;;;;;;;;;6528807;22;19991;-61
2022/05/14 07:32:05;;;;;;;10.20;7.18;;;;;;;;;;6556681;22;20040;-60
2022/05/14 07:34:35;;;;;;;10.52;7.72;;;;;;;;;;6555726;22;20436;-60
2022/05/14 07:37:08;;;;;;;10.38;6.40;;;;;;;;;;6528661;22;20009;-60
2022/05/14 07:39:48;;;;;;;7.53;6.65;;;;;;;;;;6528455;22;20006;-60
2022/05/14 07:42:22;;;;;;;5.82;5.03;;;;;;;;;;6528926;22;20436;-60
2022/05/14 07:44:54;;;;;;;9.52;7.57;;;;;;;;;;6528600;22;20000;-60
2022/05/14 07:47:24;;;;;;;8.68;7.88;;;;;;;;;;6528419;22;20001;-60
2022/05/14 07:49:55;;;;;;;13.65;6.15;;;;;;;;;;6527255;22;20329;-59
2022/05/14 07:52:26;;;;;;;8.30;6.95;;;;;;;;;;6528555;22;20401;-60
2022/05/14 07:54:56;;;;;;;7.07;6.03;;;;;;;;;;6555657;22;20053;-60
2022/05/14 07:57:27;;;;;;;11.88;5.97;;;;;;;;;;6528850;22;20002;-59
2022/05/14 07:59:57;;;;;;;8.45;6.95;;;;;;;;;;6556341;22;20321;-59
2022/05/14 08:02:31;;;;;;;10.20;8.13;;;;;;;;;;6528502;22;20382;-59
2022/05/14 08:05:03;;;;;;;11.68;5.55;;;;;;;;;;6528136;22;20003;-59
2022/05/14 08:07:34;;;;;;;16.90;8.65;;;;;;;;;;6527946;22;20006;-60
2022/05/14 08:10:05;;;;;;;8.75;6.25;;;;;;;;;;6527463;22;19991;-59
2022/05/14 08:12:38;;;;;;;11.73;5.93;;;;;;;;;;6555144;22;20079;-57
2022/05/14 08:15:09;;;;;;;7.22;6.63;;;;;;;;;;6527312;22;19999;-58
2022/05/14 08:17:39;;;;;;;10.65;5.05;;;;;;;;;;6553116;22;20432;-59
2022/05/14 08:20:10;;;;;;;10.75;8.45;;;;;;;;;;6524844;22;20006;-58
2022/05/14 08:25:30;;;;;;;12.30;6.22;;;;;;;;;;6554845;22;20116;-58
2022/05/14 08:28:00;;;;;;;9.70;5.35;;;;;;;;;;6527130;22;20003;-60
2022/05/14 08:30:32;;;;;;;8.40;5.75;;;;;;;;;;6527068;22;20003;-58
2022/05/14 08:33:04;;;;;;;14.73;8.18;;;;;;;;;;6526993;22;20367;-58
2022/05/14 08:35:35;;;;;;;25.67;7.70;;;;;;;;;;6526906;22;20082;-59
2022/05/14 08:38:08;;;;;;;10.75;6.88;;;;;;;;;;6527110;22;20003;-58
2022/05/14 08:40:40;;;;;;;5.43;4.53;;;;;;;;;;6527045;22;20002;-59
2022/05/14 08:43:19;;;;;;;9.98;5.43;;;;;;;;;;6526857;22;20007;-58
2022/05/14 08:45:49;;;;;;;7.22;6.57;;;;;;;;;;6526000;22;20056;-59
2022/05/14 08:48:32;;;;;;;8.80;6.15;;;;;;;;;;6525486;22;20074;-58
2022/05/14 08:51:08;;;;;;;7.85;6.20;;;;;;;;;;6526925;22;20002;-59
2022/05/14 08:53:39;;;;;;;12.13;6.50;;;;;;;;;;6526565;22;19994;-59
2022/05/14 08:56:16;;;;;;;5.95;5.38;;;;;;;;;;6554188;22;19999;-59
2022/05/14 08:59:05;;;;;;;17.20;8.02;;;;;;;;;;6527194;22;20010;-58
2022/05/14 09:01:37;;;;;;;19.10;6.35;;;;;;;;;;6526253;22;20075;-58
2022/05/14 09:04:09;;;;;;;6.20;5.65;;;;;;;;;;6553626;22;20374;-59
2022/05/14 09:06:39;;;;;;;6.65;5.80;;;;;;;;;;6526921;22;20005;-59
2022/05/14 09:09:10;;;;;;;8.40;5.68;;;;;;;;;;6553056;22;20359;-59
2022/05/14 09:11:42;;;;;;;7.65;6.28;;;;;;;;;;6526632;22;20022;-59
2022/05/14 09:14:18;;;;;;;5.13;4.72;;;;;;;;;;6526635;22;20436;-59
2022/05/14 09:16:51;;;;;;;6.03;4.95;;;;;;;;;;6526439;22;20022;-59
2022/05/14 09:19:24;;;;;;;11.32;5.25;;;;;;;;;;6527093;22;20010;-59
2022/05/14 09:21:57;;;;;;;7.60;5.32;;;;;;;;;;6527419;22;20042;-59
2022/05/14 09:24:28;;;;;;;12.82;4.78;;;;;;;;;;6526437;22;20425;-59
2022/05/14 09:27:10;;;;;;;9.18;7.32;;;;;;;;;;6526613;22;20003;-59
2022/05/14 09:29:43;;;;;;;17.77;6.18;;;;;;;;;;6526588;22;20230;-59
2022/05/14 09:32:17;;;;;;;8.50;3.67;;;;;;;;;;6526404;22;20071;-59
2022/05/14 09:34:48;;;;;;;9.38;5.15;;;;;;;;;;6526163;22;20390;-59
2022/05/14 09:37:20;;;;;;;7.97;7.20;;;;;;;;;;6526695;22;20078;-59
2022/05/14 09:39:57;;;;;;;7.60;5.63;;;;;;;;;;6526220;22;20101;-59
2022/05/14 09:42:33;;;;;;;10.63;5.07;;;;;;;;;;6526463;22;20382;-59
2022/05/14 09:45:15;;;;;;;7.75;4.70;;;;;;;;;;6554283;22;20073;-59
2022/05/14 09:47:45;;;;;;;5.22;3.83;;;;;;;;;;6556392;22;20052;-60
2022/05/14 09:50:18;;;;;;;4.10;3.70;;;;;;;;;;6527895;22;19995;-59
2022/05/14 09:52:56;;;;;;;5.65;3.50;;;;;;;;;;6528623;22;19999;-60
2022/05/14 09:55:37;;;;;;;4.75;4.45;;;;;;;;;;6528313;22;19995;-59
2022/05/14 09:58:15;;;;;;;8.52;5.50;;;;;;;;;;6502912;22;20374;-60
2022/05/14 10:00:56;;;;;;;5.15;4.65;;;;;;;;;;6528435;22;20455;-59
2022/05/14 10:03:41;;;;;;;5.13;4.65;;;;;;;;;;6528148;22;20051;-62
2022/05/14 10:06:30;;;;;;;8.30;4.35;;;;;;;;;;6556179;22;20009;-60
2022/05/14 10:09:11;;;;;;;6.13;4.25;;;;;;;;;;6528229;22;20044;-60
2022/05/14 10:11:44;;;;;;;5.00;3.92;;;;;;;;;;6528231;22;20010;-60
2022/05/14 10:14:34;;;;;;;11.05;5.03;;;;;;;;;;6528167;22;19994;-60
2022/05/14 10:17:04;;;;;;;5.20;4.72;;;;;;;;;;6528784;22;20025;-60
2022/05/14 10:19:34;;;;;;;10.73;5.93;;;;;;;;;;6528596;22;19999;-60
2022/05/14 10:22:17;;;;;;;4.68;2.92;;;;;;;;;;6528436;22;20073;-60
2022/05/14 10:27:58;;;;;;;5.88;3.33;;;;;;;;;;6555970;22;20375;-60
2022/05/14 10:30:43;;;;;;;5.32;4.13;;;;;;;;;;6528526;22;19999;-60
2022/05/14 10:33:18;;;;;;;8.60;4.53;;;;;;;;;;6528322;22;20037;-60
2022/05/14 10:35:54;;;;;;;6.00;3.63;;;;;;;;;;6528368;22;20005;-60
2022/05/14 10:38:26;;;;;;;7.25;3.85;;;;;;;;;;6554955;22;19990;-60
2022/05/14 10:41:01;;;;;;;5.03;4.00;;;;;;;;;;6528494;22;20009;-61
2022/05/14 10:43:49;;;;;;;7.70;4.45;;;;;;;;;;6556039;22;20005;-60
2022/05/14 10:46:21;;;;;;;8.63;3.63;;;;;;;;;;6528279;22;20052;-60
2022/05/14 10:48:57;;;;;;;6.63;4.80;;;;;;;;;;6528187;22;20009;-60
2022/05/14 10:51:29;;;;;;;4.18;3.50;;;;;;;;;;6528357;22;20429;-60
2022/05/14 10:54:00;;;;;;;4.22;3.70;;;;;;;;;;6528258;22;20433;-60
2022/05/14 10:56:35;;;;;;;14.55;6.30;;;;;;;;;;6528339;22;20026;-61
2022/05/14 10:59:07;;;;;;;10.65;5.28;;;;;;;;;;6556067;22;19999;-60
2022/05/14 11:01:46;;;;;;;4.68;4.10;;;;;;;;;;6555822;22;20003;-60
2022/05/14 11:04:16;;;;;;;;;;;;;;;;;;6520454;22;20265;-60
2022/05/14 11:06:51;;;;;;;7.30;4.30;;;;;;;;;;6496281;22;19903;-60
2022/05/14 11:18:20;;;;;;;6.65;4.68;;;;;;;;;;6553988;22;20030;-59
2022/05/14 11:20:58;;;;;;;3.80;3.13;;;;;;;;;;6536859;22;20344;-61
2022/05/14 11:23:29;;;;;;;4.40;3.25;;;;;;;;;;6529761;22;19994;-61
2022/05/14 11:26:04;;;;;;;6.40;4.07;;;;;;;;;;6529546;22;20024;-62
2022/05/14 11:28:35;;;;;;;4.60;3.45;;;;;;;;;;6529685;22;19991;-62
2022/05/14 11:31:11;;;;;;;4.15;3.72;;;;;;;;;;6528987;22;19999;-62
2022/05/14 11:33:42;;;;;;;3.97;3.65;;;;;;;;;;6519422;22;20011;-60
2022/05/14 11:36:12;;;;;;;11.13;5.00;;;;;;;;;;6493718;22;20006;-61
2022/05/14 11:38:47;;;;;;;13.27;5.03;;;;;;;;;;6494224;22;19999;-60
2022/05/14 11:41:31;;;;;;;4.55;3.72;;;;;;;;;;6492837;22;20246;-60
2022/05/14 11:44:04;;;;;;;8.65;3.95;;;;;;;;;;6493802;22;20006;-59
2022/05/14 11:46:48;;;;;;;3.60;3.30;;;;;;;;;;6495069;22;20169;-61
2022/05/14 11:49:35;;;;;;;3.80;3.55;;;;;;;;;;6495257;22;20050;-59
2022/05/14 11:52:08;;;;;;;3.78;3.47;;;;;;;;;;6495309;22;20349;-60
2022/05/14 11:54:45;;;;;;;7.97;4.18;;;;;;;;;;6494443;22;20070;-59
2022/05/14 11:57:23;;;;;;;3.92;3.33;;;;;;;;;;6494967;22;20007;-60
2022/05/14 11:59:53;;;;;;;3.42;3.22;;;;;;;;;;6494616;22;20078;-60
2022/05/14 12:02:24;;;;;;;3.97;3.75;;;;;;;;;;6494705;22;20030;-60
2022/05/14 12:04:56;;;;;;;3.22;3.03;;;;;;;;;;6494504;22;20436;-61
2022/05/14 12:07:49;;;;;;;9.20;4.47;;;;;;;;;;6495055;22;20003;-59
2022/05/14 12:10:23;;;;;;;6.10;2.28;;;;;;;;;;6492385;22;20033;-59
2022/05/14 12:13:00;;;;;;;3.83;2.90;;;;;;;;;;6493518;22;20053;-58
2022/05/14 12:15:31;;;;;;;3.38;2.65;;;;;;;;;;6521660;22;19996;-59
2022/05/14 12:18:01;;;;;;;6.47;3.20;;;;;;;;;;6493909;22;20049;-60
2022/05/14 12:20:33;;;;;;;3.90;3.60;;;;;;;;;;6493330;22;20074;-60
2022/05/14 12:23:11;;;;;;;6.80;3.72;;;;;;;;;;6494125;22;20110;-58
2022/05/14 12:25:43;;;;;;;5.57;3.67;;;;;;;;;;6493953;22;20318;-59
2022/05/14 12:28:40;;;;;;;7.55;5.45;;;;;;;;;;6494281;22;20000;-58
2022/05/14 12:34:04;;;;;;;6.80;3.63;;;;;;;;;;6530314;22;20014;-60
2022/05/14 12:36:34;;;;;;;4.57;4.13;;;;;;;;;;6553712;22;20366;-58
2022/05/14 12:39:12;;;;;;;2.97;2.67;;;;;;;;;;6525865;22;20095;-59
2022/05/14 12:41:45;;;;;;;12.18;5.20;;;;;;;;;;6525484;22;20021;-59
2022/05/14 12:44:25;;;;;;;5.32;3.10;;;;;;;;;;6526150;22;20022;-57
2022/05/14 12:47:20;;;;;;;5.88;3.70;;;;;;;;;;6526827;22;19999;-61
2022/05/14 12:49:50;;;;;;;7.07;3.15;;;;;;;;;;6525670;22;20091;-61
2022/05/14 12:52:22;;;;;;;6.38;4.50;;;;;;;;;;6525985;22;20405;-61
2022/05/14 12:54:55;;;;;;;4.65;3.40;;;;;;;;;;6525524;22;19999;-60
2022/05/14 12:57:26;;;;;;;4.15;3.42;;;;;;;;;;6554009;22;20421;-61
2022/05/14 12:59:56;;;;;;;5.20;3.78;;;;;;;;;;6526056;22;20094;-61
2022/05/14 13:02:33;;;;;;;5.18;3.50;;;;;;;;;;6525730;22;19995;-61
2022/05/14 13:05:11;;;;;;;4.38;3.50;;;;;;;;;;6526479;22;20368;-60
2022/05/14 13:07:46;;;;;;;7.53;4.22;;;;;;;;;;6525952;22;20030;-61
2022/05/14 13:10:17;;;;;;;9.77;4.18;;;;;;;;;;6526141;22;20029;-61
2022/05/14 13:12:53;;;;;;;3.90;3.42;;;;;;;;;;6526478;22;20332;-61
2022/05/14 13:15:43;;;;;;;3.45;2.28;;;;;;;;;;6526539;22;20085;-59
2022/05/14 13:18:19;;;;;;;5.00;2.97;;;;;;;;;;6554141;22;20438;-60
2022/05/14 13:21:03;;;;;;;6.82;2.75;;;;;;;;;;6525521;22;20028;-62
2022/05/14 13:23:35;;;;;;;9.70;5.25;;;;;;;;;;6525606;22;20052;-62
2022/05/14 13:26:12;;;;;;;5.70;3.22;;;;;;;;;;6527182;22;19999;-61
2022/05/14 13:28:44;;;;;;;9.27;5.20;;;;;;;;;;6526332;22;20408;-62
2022/05/14 13:31:26;;;;;;;7.28;3.05;;;;;;;;;;6525711;22;20094;-62
2022/05/14 13:33:57;;;;;;;3.83;2.90;;;;;;;;;;6525182;22;20006;-62
2022/05/14 13:39:17;;;;;;;5.72;3.70;;;;;;;;;;6554461;22;20107;-62
2022/05/14 13:41:47;;;;;;;4.05;3.75;;;;;;;;;;6526219;22;20022;-62
2022/05/14 13:44:25;;;;;;;7.30;4.53;;;;;;;;;;6553918;22;19999;-61
2022/05/14 13:46:57;;;;;;;5.82;3.20;;;;;;;;;;6527493;22;20049;-62
2022/05/14 13:49:29;;;;;;;5.72;3.33;;;;;;;;;;6526895;22;20002;-60
2022/05/14 13:52:02;;;;;;;8.70;3.65;;;;;;;;;;6527167;22;20013;-60
2022/05/14 13:54:32;;;;;;;8.52;3.25;;;;;;;;;;6526648;22;20006;-61
2022/05/14 13:57:04;;;;;;;5.97;4.50;;;;;;;;;;6526468;22;20448;-61
2022/05/14 13:59:36;;;;;;;2.42;2.25;;;;;;;;;;6526102;22;20003;-62
2022/05/14 14:02:21;;;;;;;10.57;6.07;;;;;;;;;;6526420;22;19999;-62
2022/05/14 14:04:53;;;;;;;3.30;2.58;;;;;;;;;;6526038;22;20022;-61
2022/05/14 14:07:25;;;;;;;5.85;4.68;;;;;;;;;;6553674;22;20003;-62
2022/05/14 14:09:55;;;;;;;3.70;3.40;;;;;;;;;;6525297;22;19998;-62
2022/05/14 14:12:26;;;;;;;4.25;3.80;;;;;;;;;;6526258;22;20006;-62
2022/05/14 14:14:56;;;;;;;4.03;3.70;;;;;;;;;;6525425;22;20474;-62
2022/05/14 14:17:26;;;;;;;3.95;3.65;;;;;;;;;;6553476;22;20229;-62
2022/05/14 14:19:57;;;;;;;5.97;3.80;;;;;;;;;;6554299;22;20025;-62
2022/05/14 14:22:28;;;;;;;9.57;4.32;;;;;;;;;;6525770;22;20248;-61
2022/05/14 14:24:59;;;;;;;8.30;4.10;;;;;;;;;;6525275;22;20003;-62
2022/05/14 14:27:29;;;;;;;9.50;5.03;;;;;;;;;;6525742;22;19991;-62
2022/05/14 14:29:59;;;;;;;4.63;3.80;;;;;;;;;;6524943;22;20060;-62
2022/05/14 14:32:30;;;;;;;6.13;5.53;;;;;;;;;;6526854;22;20229;-61
2022/05/14 14:35:01;;;;;;;3.42;3.13;;;;;;;;;;6527086;22;20723;-62
2022/05/14 14:43:48;;;;;;;8.98;5.07;;;;;;;;;;6548908;22;20026;-92
2022/05/14 14:46:20;;;;;;;3.17;2.95;;;;;;;;;;6525741;22;19991;-93
2022/05/14 14:48:53;;;;;;;3.45;3.22;;;;;;;;;;6525326;22;20036;-92
2022/05/14 14:51:24;;;;;;;5.97;3.80;;;;;;;;;;6506374;22;20019;-93
2022/05/14 14:53:57;;;;;;;4.43;3.60;;;;;;;;;;6504858;22;20056;-93
2022/05/14 14:56:27;;;;;;;8.48;4.63;;;;;;;;;;6500495;22;20354;-92
2022/05/14 14:58:58;;;;;;;3.97;3.70;;;;;;;;;;6520631;22;20040;-63
2022/05/14 15:01:31;;;;;;;9.40;4.72;;;;;;;;;;6528743;22;20007;-63
2022/05/14 15:04:14;;;;;;;3.60;2.95;;;;;;;;;;6528136;22;20030;-63
2022/05/14 15:06:46;;;;;;;5.30;3.45;;;;;;;;;;6528794;22;20055;-63
2022/05/14 15:09:16;;;;;;;4.82;3.70;;;;;;;;;;6556824;22;20461;-63
2022/05/14 15:11:47;;;;;;;8.55;3.40;;;;;;;;;;6528593;22;20083;-64
2022/05/14 15:14:20;;;;;;;16.08;4.55;;;;;;;;;;6528344;22;20006;-63
2022/05/14 15:16:50;;;;;;;4.40;3.25;;;;;;;;;;6528921;22;20056;-63
2022/05/14 15:19:21;;;;;;;4.40;3.15;;;;;;;;;;6528565;22;19995;-64
2022/05/14 15:21:55;;;;;;;4.95;4.35;;;;;;;;;;6555954;22;19995;-64
2022/05/14 15:24:25;;;;;;;7.93;4.35;;;;;;;;;;6528305;22;20340;-64
2022/05/14 15:26:56;;;;;;;4.93;3.28;;;;;;;;;;6528592;22;20074;-62
2022/05/14 15:29:26;;;;;;;4.53;4.23;;;;;;;;;;6528552;22;20486;-63
2022/05/14 15:32:11;;;;;;;11.50;5.18;;;;;;;;;;6528654;22;20264;-62
2022/05/14 15:34:41;;;;;;;17.25;5.72;;;;;;;;;;6527741;22;20003;-62
2022/05/14 15:37:12;;;;;;;9.35;6.70;;;;;;;;;;6528078;22;20026;-62
2022/05/14 15:39:42;;;;;;;5.28;4.40;;;;;;;;;;6528095;22;20003;-63
2022/05/14 15:42:27;;;;;;;11.52;4.88;;;;;;;;;;6527966;22;19998;-63
2022/05/14 15:44:59;;;;;;;9.13;5.25;;;;;;;;;;6528551;22;20082;-64
2022/05/14 15:47:31;;;;;;;6.60;5.13;;;;;;;;;;6528718;22;20090;-63
2022/05/14 15:50:06;;;;;;;4.47;3.28;;;;;;;;;;6528741;22;20440;-63
2022/05/14 15:52:38;;;;;;;8.98;4.80;;;;;;;;;;6528513;22;20003;-64
2022/05/14 15:55:10;;;;;;;5.10;4.00;;;;;;;;;;6527786;22;20005;-64